Time;durP1;ratioP1;P1;durP2;ratioP2;P2;SDS_P1;SDS_P2;PMS_P1;PMS_P2;Temp;Humidity;BMP_temperature;BMP_pressure;BME280_temperature;BME280_humidity;BME280_pressure;Samples;Min_cycle;Max_cycle;Signal;HPM_P1;HPM_P2
2021/12/14 00:01:31;;;;;;;1.77;1.63;;;16.70;73.80;;;;;;5031524;28;20052;-49
2021/12/14 00:04:03;;;;;;;2.63;2.15;;;16.70;79.20;;;;;;5031508;28;20419;-48
2021/12/14 00:06:29;;;;;;;3.42;2.08;;;;;;;;;;5031342;28;20033;-47
2021/12/14 00:08:57;;;;;;;3.15;2.25;;;;;;;;;;5032038;28;20036;-48
2021/12/14 00:14:27;;;;;;;2.78;2.08;;;16.60;79.40;;;;;;5035335;28;20046;-49
2021/12/14 00:16:57;;;;;;;2.72;2.25;;;16.70;79.30;;;;;;5035239;28;20108;-48
2021/12/14 00:19:25;;;;;;;1.92;1.73;;;16.60;76.80;;;;;;5034605;28;20532;-48
2021/12/14 00:21:54;;;;;;;2.97;2.25;;;;;;;;;;5034937;28;20061;-48
2021/12/14 00:24:22;;;;;;;3.55;2.30;;;16.60;79.30;;;;;;5034901;28;20049;-48
2021/12/14 00:26:58;;;;;;;2.63;2.20;;;16.60;73.90;;;;;;5034872;28;20040;-48
2021/12/14 00:29:30;;;;;;;2.35;1.90;;;16.60;79.40;;;;;;5034889;28;20030;-47
2021/12/14 00:32:00;;;;;;;2.25;1.90;;;16.60;79.30;;;;;;5034773;28;20029;-48
2021/12/14 00:34:36;;;;;;;1.85;1.75;;;;;;;;;;5034874;28;20033;-48
2021/12/14 00:37:08;;;;;;;2.47;2.17;;;16.60;79.40;;;;;;5034521;28;20040;-48
2021/12/14 00:39:35;;;;;;;2.83;2.20;;;;;;;;;;5034604;28;20075;-47
2021/12/14 00:42:01;;;;;;;2.03;1.77;;;;;;;;;;5034590;28;20418;-48
2021/12/14 00:44:27;;;;;;;2.45;2.17;;;;;;;;;;5034546;28;20030;-45
2021/12/14 00:46:53;;;;;;;2.67;1.90;;;;;;;;;;5034442;28;20064;-45
2021/12/14 00:49:19;;;;;;;2.63;1.90;;;;;;;;;;5034395;28;20061;-44
2021/12/14 00:51:45;;;;;;;3.35;2.05;;;;;;;;;;5034288;28;20181;-46
2021/12/14 00:54:13;;;;;;;2.47;2.25;;;16.50;79.20;;;;;;5034137;28;20498;-46
2021/12/14 00:56:40;;;;;;;2.53;2.33;;;;;;;;;;5034216;28;20032;-45
2021/12/14 00:59:07;;;;;;;2.80;2.10;;;16.50;79.30;;;;;;5034190;28;20065;-45
2021/12/14 01:01:41;;;;;;;2.45;2.25;;;16.50;79.00;;;;;;5034100;28;20080;-44
2021/12/14 01:04:13;;;;;;;2.65;2.20;;;16.60;79.30;;;;;;5034402;28;20468;-45
2021/12/14 01:06:45;;;;;;;3.35;2.20;;;16.50;79.40;;;;;;5034333;28;20387;-45
2021/12/14 01:09:17;;;;;;;2.50;2.30;;;16.50;79.40;;;;;;5034226;28;20388;-45
2021/12/14 01:11:47;;;;;;;1.90;1.63;;;16.40;79.20;;;;;;5034074;28;20030;-44
2021/12/14 01:14:31;;;;;;;2.28;1.98;;;16.50;79.20;;;;;;5034084;28;20037;-46
2021/12/14 01:17:13;;;;;;;2.75;2.50;;;16.50;79.20;;;;;;5034180;28;20360;-45
2021/12/14 01:19:46;;;;;;;1.92;1.83;;;16.50;79.50;;;;;;5033289;28;20053;-45
2021/12/14 01:22:33;;;;;;;2.22;2.03;;;16.50;79.20;;;;;;5033785;28;20464;-45
2021/12/14 01:25:13;;;;;;;4.38;2.55;;;16.40;79.30;;;;;;5033724;28;20049;-46
2021/12/14 01:27:41;;;;;;;;;;;16.50;74.60;;;;;;5034357;28;20021;-44
2021/12/14 01:30:14;;;;;;;2.80;2.33;;;16.40;79.30;;;;;;5033629;28;20084;-45
2021/12/14 01:32:44;;;;;;;2.13;1.80;;;16.40;76.90;;;;;;5033518;28;20079;-45
2021/12/14 01:35:13;;;;;;;;;;;17.00;80.20;;;;;;5033873;28;20048;-45
2021/12/14 01:37:47;;;;;;;1.90;1.70;;;16.40;79.20;;;;;;5033483;28;19993;-44
2021/12/14 01:40:30;;;;;;;2.65;1.80;;;16.40;79.20;;;;;;5033383;28;20498;-46
2021/12/14 01:42:57;;;;;;;2.22;2.03;;;16.30;78.70;;;;;;5033314;28;20060;-45
2021/12/14 01:45:25;;;;;;;2.03;1.90;;;16.50;77.30;;;;;;5033222;28;20026;-44
2021/12/14 01:47:57;;;;;;;2.40;2.20;;;16.40;73.90;;;;;;5033171;28;20105;-45
2021/12/14 01:50:28;;;;;;;2.40;2.20;;;16.40;79.40;;;;;;5033148;28;20392;-44
2021/12/14 01:52:56;;;;;;;2.20;2.00;;;16.40;79.30;;;;;;5033109;28;20029;-44
2021/12/14 01:55:26;;;;;;;4.25;2.15;;;16.40;79.60;;;;;;5033012;28;20133;-47
2021/12/14 01:57:55;;;;;;;2.88;2.40;;;16.30;79.10;;;;;;5033266;28;20060;-48
2021/12/14 02:00:27;;;;;;;2.08;1.92;;;16.30;79.10;;;;;;5031696;28;20017;-46
2021/12/14 02:02:53;;;;;;;2.22;2.03;;;;;;;;;;5032937;28;20040;-45
2021/12/14 02:05:26;;;;;;;2.28;2.00;;;16.40;79.20;;;;;;5032944;28;20030;-44
2021/12/14 02:07:53;;;;;;;2.88;2.13;;;16.30;76.60;;;;;;5032953;28;20067;-45
2021/12/14 02:10:25;;;;;;;2.40;2.10;;;16.30;79.40;;;;;;5032835;28;20032;-44
2021/12/14 02:12:51;;;;;;;3.25;2.30;;;;;;;;;;5032837;28;20039;-45
2021/12/14 02:15:29;;;;;;;2.10;1.90;;;16.30;79.30;;;;;;5032671;28;20035;-45
2021/12/14 02:18:00;;;;;;;2.65;1.70;;;16.40;79.70;;;;;;5032692;28;20458;-45
2021/12/14 02:20:30;;;;;;;2.15;1.95;;;16.30;79.40;;;;;;5032461;28;20071;-45
2021/12/14 02:22:58;;;;;;;2.00;1.65;;;16.30;79.20;;;;;;5032903;28;20021;-45
2021/12/14 02:25:24;;;;;;;2.25;2.05;;;;;;;;;;5031172;28;20475;-44
2021/12/14 02:27:51;;;;;;;2.70;2.50;;;16.30;78.30;;;;;;5032586;28;20475;-44
2021/12/14 02:30:23;;;;;;;4.25;2.05;;;16.30;79.30;;;;;;5032544;28;20446;-45
2021/12/14 02:32:49;;;;;;;2.90;2.55;;;;;;;;;;5031886;28;20088;-45
2021/12/14 02:35:18;;;;;;;2.15;1.95;;;16.30;79.50;;;;;;5032476;28;20065;-47
2021/12/14 02:37:44;;;;;;;2.40;2.13;;;;;;;;;;5032687;28;20435;-48
2021/12/14 02:40:20;;;;;;;2.28;1.90;;;16.30;79.40;;;;;;5032351;28;20029;-49
2021/12/14 02:42:51;;;;;;;2.22;2.05;;;16.20;74.00;;;;;;5032303;28;20448;-48
2021/12/14 02:45:22;;;;;;;2.25;2.05;;;16.20;79.20;;;;;;5032126;28;20457;-49
2021/12/14 02:47:48;;;;;;;1.92;1.83;;;;;;;;;;5032270;28;20029;-48
2021/12/14 02:50:14;;;;;;;2.30;2.10;;;;;;;;;;5032129;28;20049;-50
2021/12/14 02:52:40;;;;;;;1.83;1.73;;;;;;;;;;5032202;28;20052;-51
2021/12/14 02:55:16;;;;;;;2.15;1.95;;;16.20;73.90;;;;;;5032355;28;20105;-45
2021/12/14 02:57:46;;;;;;;2.08;1.80;;;16.20;79.20;;;;;;5032013;28;20510;-44
2021/12/14 03:00:19;;;;;;;2.28;2.00;;;16.20;73.80;;;;;;5032007;28;20033;-45
2021/12/14 03:02:45;;;;;;;1.83;1.73;;;16.20;79.30;;;;;;5030725;28;20036;-44
2021/12/14 03:05:19;;;;;;;2.50;2.08;;;16.20;79.30;;;;;;5031996;28;20108;-45
2021/12/14 03:07:51;;;;;;;2.17;2.00;;;16.20;79.30;;;;;;5032013;28;20029;-44
2021/12/14 03:12:58;;;;;;;1.67;1.58;;;16.20;79.30;;;;;;5032445;28;20043;-45
2021/12/14 03:15:32;;;;;;;2.33;2.13;;;16.20;74.10;;;;;;5031824;28;20029;-45
2021/12/14 03:18:03;;;;;;;2.17;1.98;;;16.20;79.40;;;;;;5031928;28;20026;-46
2021/12/14 03:20:35;;;;;;;2.15;1.88;;;16.20;79.30;;;;;;5031578;28;20111;-45
2021/12/14 03:23:09;;;;;;;2.25;2.05;;;16.10;79.40;;;;;;5031788;28;20484;-46
2021/12/14 03:25:39;;;;;;;2.47;2.05;;;16.30;79.50;;;;;;5031837;28;20040;-45
2021/12/14 03:28:06;;;;;;;2.53;1.95;;;16.10;79.20;;;;;;5031822;28;20022;-46
2021/12/14 03:30:36;;;;;;;2.15;1.65;;;16.20;79.40;;;;;;5031712;28;20034;-45
2021/12/14 03:33:07;;;;;;;2.40;1.87;;;16.20;79.20;;;;;;5031692;28;20029;-45
2021/12/14 03:35:47;;;;;;;2.08;1.88;;;16.20;74.00;;;;;;5031666;28;20045;-45
2021/12/14 03:38:17;;;;;;;1.80;1.70;;;16.10;79.40;;;;;;5031743;28;20057;-46
2021/12/14 03:40:52;;;;;;;1.77;1.67;;;16.10;79.20;;;;;;5031702;28;20541;-44
2021/12/14 03:43:18;;;;;;;1.60;1.50;;;;;;;;;;5032996;28;20060;-45
2021/12/14 03:45:44;;;;;;;1.75;1.65;;;;;;;;;;5035673;28;20037;-44
2021/12/14 03:48:10;;;;;;;1.85;1.75;;;;;;;;;;5035640;28;20103;-46
2021/12/14 03:50:41;;;;;;;2.33;2.13;;;16.10;79.40;;;;;;5035793;28;20423;-45
2021/12/14 03:53:07;;;;;;;2.05;1.75;;;;;;;;;;5035425;28;20638;-45
2021/12/14 03:55:37;;;;;;;1.85;1.65;;;16.10;79.60;;;;;;5035370;28;20476;-46
2021/12/14 03:58:09;;;;;;;2.75;1.98;;;16.00;74.10;;;;;;5035299;28;20022;-45
2021/12/14 04:00:39;;;;;;;1.70;1.60;;;16.10;79.60;;;;;;5035322;28;20029;-46
2021/12/14 04:03:10;;;;;;;1.73;1.30;;;16.10;79.40;;;;;;5035271;28;20025;-46
2021/12/14 04:05:36;;;;;;;1.67;1.58;;;;;;;;;;5035583;28;20475;-45
2021/12/14 04:08:02;;;;;;;1.80;1.67;;;16.10;78.80;;;;;;5035198;28;20029;-47
2021/12/14 04:10:32;;;;;;;1.85;1.75;;;16.00;79.50;;;;;;5035065;28;20383;-49
2021/12/14 04:12:59;;;;;;;1.83;1.73;;;16.00;76.20;;;;;;5035170;28;20021;-49
2021/12/14 04:15:25;;;;;;;1.83;1.60;;;;;;;;;;5035024;28;20365;-48
2021/12/14 04:17:51;;;;;;;1.52;1.42;;;;;;;;;;5034969;28;20375;-48
2021/12/14 04:20:17;;;;;;;2.05;1.60;;;;;;;;;;5034838;28;20057;-48
2021/12/14 04:22:48;;;;;;;1.40;1.30;;;;;;;;;;5034802;28;20025;-47
2021/12/14 04:25:17;;;;;;;2.60;1.80;;;16.00;79.50;;;;;;5035208;28;20387;-45
2021/12/14 04:27:43;;;;;;;1.55;1.45;;;;;;;;;;5034829;28;20105;-48
2021/12/14 04:30:12;;;;;;;1.52;1.42;;;16.30;79.60;;;;;;5034791;28;20026;-47
2021/12/14 04:32:38;;;;;;;2.17;1.92;;;16.00;76.80;;;;;;5034691;28;20037;-48
2021/12/14 04:35:07;;;;;;;2.00;1.55;;;16.00;79.80;;;;;;5034591;28;20431;-49
2021/12/14 04:37:38;;;;;;;1.55;1.45;;;16.00;76.80;;;;;;5034527;28;20388;-48
2021/12/14 04:40:24;;;;;;;1.60;1.50;;;16.00;79.50;;;;;;5034827;28;20030;-49
2021/12/14 04:53:58;;;;;;;1.63;1.52;;;16.00;79.70;;;;;;5034502;28;20052;-49
2021/12/14 04:56:30;;;;;;;1.60;1.50;;;16.00;79.80;;;;;;5033719;28;20479;-49
2021/12/14 04:59:07;;;;;;;1.42;1.30;;;16.00;74.10;;;;;;5034539;28;20386;-48
2021/12/14 05:01:37;;;;;;;1.63;1.40;;;16.00;79.40;;;;;;5034265;28;20540;-49
2021/12/14 05:04:06;;;;;;;1.60;1.50;;;15.90;79.90;;;;;;5034255;28;20026;-44
2021/12/14 05:06:46;;;;;;;1.33;1.23;;;16.00;79.50;;;;;;5034024;28;20029;-45
2021/12/14 05:09:23;;;;;;;1.47;1.37;;;15.90;78.30;;;;;;5034233;28;20291;-45
2021/12/14 05:11:57;;;;;;;2.00;1.40;;;15.90;79.60;;;;;;5034184;28;20276;-45
2021/12/14 05:14:27;;;;;;;1.70;1.60;;;15.90;79.30;;;;;;5033875;28;20044;-45
2021/12/14 05:16:56;;;;;;;1.57;1.47;;;15.70;79.20;;;;;;5033897;28;20022;-45
2021/12/14 05:19:25;;;;;;;1.58;1.48;;;15.90;79.50;;;;;;5033654;28;20342;-45
2021/12/14 05:21:53;;;;;;;1.40;1.20;;;15.90;79.40;;;;;;5034104;28;20026;-45
2021/12/14 05:24:23;;;;;;;1.42;1.33;;;15.90;79.40;;;;;;5033836;28;20099;-44
2021/12/14 05:26:55;;;;;;;4.00;1.83;;;15.90;79.20;;;;;;5033575;28;20017;-45
2021/12/14 05:29:26;;;;;;;1.70;1.60;;;15.90;74.00;;;;;;5033671;28;20075;-45
2021/12/14 05:31:53;;;;;;;1.40;1.30;;;;;;;;;;5033623;28;20036;-45
2021/12/14 05:34:22;;;;;;;1.55;1.45;;;16.10;79.60;;;;;;5033452;28;20079;-45
2021/12/14 05:36:48;;;;;;;2.25;1.45;;;;;;;;;;5033536;28;20021;-45
2021/12/14 05:44:39;;;;;;;1.30;1.20;;;15.80;79.30;;;;;;5033644;28;20026;-49
2021/12/14 05:47:13;;;;;;;1.85;1.67;;;15.90;79.30;;;;;;5033498;28;20033;-48
2021/12/14 05:49:41;;;;;;;1.42;1.33;;;15.90;79.40;;;;;;5033255;28;20029;-49
2021/12/14 05:52:20;;;;;;;1.50;1.40;;;15.80;79.40;;;;;;5033138;28;20025;-49
2021/12/14 05:54:47;;;;;;;1.60;1.50;;;15.80;79.40;;;;;;5033193;28;20033;-47
2021/12/14 05:57:17;;;;;;;1.80;1.60;;;15.80;79.40;;;;;;5033199;28;20033;-45
2021/12/14 05:59:43;;;;;;;1.60;1.50;;;;;;;;;;5033194;28;20045;-46
2021/12/14 06:02:10;;;;;;;1.42;1.27;;;;;;;;;;5033019;28;20486;-47
2021/12/14 06:04:43;;;;;;;1.92;1.50;;;15.80;79.50;;;;;;5032972;28;20108;-49
2021/12/14 06:07:09;;;;;;;1.40;1.30;;;;;;;;;;5032018;28;20025;-47
2021/12/14 06:09:39;;;;;;;1.90;1.60;;;15.80;79.30;;;;;;5032929;28;20068;-49
2021/12/14 06:12:10;;;;;;;1.60;1.50;;;16.00;73.90;;;;;;5032899;28;20103;-49
2021/12/14 06:14:42;;;;;;;2.05;1.70;;;15.80;78.20;;;;;;5032830;28;20037;-48
2021/12/14 06:17:09;;;;;;;1.35;1.25;;;15.80;78.20;;;;;;5033043;28;20026;-47
2021/12/14 06:19:38;;;;;;;1.48;1.38;;;15.80;79.20;;;;;;5032525;28;20038;-47
2021/12/14 06:22:07;;;;;;;1.90;1.35;;;15.80;79.40;;;;;;5032977;28;20049;-48
2021/12/14 06:24:41;;;;;;;1.55;1.42;;;15.80;79.40;;;;;;5032876;28;20025;-48
2021/12/14 06:27:11;;;;;;;1.50;1.40;;;15.80;79.50;;;;;;5032719;28;20052;-48
2021/12/14 06:29:39;;;;;;;1.67;1.58;;;15.80;79.30;;;;;;5032569;28;20062;-48
2021/12/14 06:32:11;;;;;;;1.52;1.42;;;15.80;79.60;;;;;;5032481;28;20021;-50
2021/12/14 06:34:44;;;;;;;1.73;1.60;;;15.80;79.30;;;;;;5032424;28;20037;-48
2021/12/14 06:40:26;;;;;;;2.10;1.90;;;15.70;73.90;;;;;;5032678;28;20099;-48
2021/12/14 06:43:06;;;;;;;1.90;1.80;;;15.80;73.90;;;;;;5032556;28;20024;-49
2021/12/14 06:45:39;;;;;;;2.00;1.75;;;15.50;73.60;;;;;;5032598;28;20383;-48
2021/12/14 06:48:22;;;;;;;2.25;2.05;;;15.50;73.80;;;;;;5032310;28;20472;-49
2021/12/14 06:51:08;;;;;;;1.70;1.60;;;15.80;73.60;;;;;;5032307;28;20399;-46
2021/12/14 06:53:35;;;;;;;2.00;1.58;;;;;;;;;;5032263;28;20037;-48
2021/12/14 06:56:05;;;;;;;1.75;1.65;;;15.90;79.00;;;;;;5032070;28;20033;-49
2021/12/14 06:58:32;;;;;;;;;;;15.80;78.90;;;;;;5032452;28;20542;-50
2021/12/14 07:01:04;;;;;;;2.20;2.03;;;15.80;73.30;;;;;;5031988;28;19920;-50
2021/12/14 07:03:49;;;;;;;1.83;1.73;;;15.50;73.30;;;;;;5032284;28;20088;-50
2021/12/14 07:06:32;;;;;;;2.53;2.00;;;15.70;73.10;;;;;;5032005;28;20097;-48
2021/12/14 07:09:13;;;;;;;1.50;1.40;;;15.80;78.90;;;;;;5032120;28;20388;-49
2021/12/14 07:11:42;;;;;;;3.53;2.00;;;15.70;78.70;;;;;;5032052;28;20121;-51
2021/12/14 07:14:39;;;;;;;4.30;2.22;;;15.80;79.00;;;;;;5031836;28;20038;-48
2021/12/14 07:17:25;;;;;;;2.55;1.50;;;15.70;73.70;;;;;;5001139;28;20041;-50
2021/12/14 07:20:18;;;;;;;4.20;2.35;;;15.80;74.00;;;;;;5038505;28;20056;-49
2021/12/14 07:22:51;;;;;;;2.88;1.70;;;15.90;78.90;;;;;;5027603;28;20151;-49
2021/12/14 07:25:28;;;;;;;1.70;1.60;;;15.90;73.50;;;;;;5038444;28;20029;-49
2021/12/14 07:27:54;;;;;;;2.30;2.10;;;;;;;;;;5038544;28;20025;-48
2021/12/14 07:30:35;;;;;;;4.10;1.85;;;15.80;74.10;;;;;;5038560;28;20066;-47
2021/12/14 07:33:15;;;;;;;3.30;2.03;;;15.80;79.30;;;;;;5038723;28;20514;-48
2021/12/14 07:35:59;;;;;;;2.72;2.30;;;15.80;79.30;;;;;;5038707;28;20037;-47
2021/12/14 07:38:34;;;;;;;6.22;2.47;;;15.80;73.90;;;;;;5038703;28;20048;-48
2021/12/14 07:41:14;;;;;;;3.78;2.72;;;15.80;74.00;;;;;;5038886;28;20084;-49
2021/12/14 07:43:57;;;;;;;3.45;2.15;;;15.80;74.00;;;;;;5038481;28;20021;-49
2021/12/14 07:46:38;;;;;;;6.28;2.35;;;15.80;73.90;;;;;;5038602;28;20125;-48
2021/12/14 07:49:08;;;;;;;2.97;2.67;;;15.80;79.60;;;;;;5038959;28;20386;-44
2021/12/14 07:51:35;;;;;;;;;;;15.80;80.40;;;;;;5039050;28;20052;-44
2021/12/14 07:54:12;;;;;;;3.33;2.78;;;15.80;74.00;;;;;;5038405;28;19920;-44
2021/12/14 07:56:46;;;;;;;5.78;2.90;;;15.80;79.60;;;;;;5038463;28;20021;-44
2021/12/14 07:59:32;;;;;;;4.60;2.30;;;15.70;74.20;;;;;;5038773;28;20056;-44
2021/12/14 08:02:18;;;;;;;5.38;2.55;;;15.80;74.10;;;;;;5038536;28;20484;-43
2021/12/14 08:04:56;;;;;;;4.50;2.83;;;15.80;79.60;;;;;;5038454;28;20022;-43
2021/12/14 08:07:35;;;;;;;5.50;3.03;;;15.70;74.10;;;;;;5038818;28;20414;-44
2021/12/14 08:10:15;;;;;;;3.03;2.60;;;15.80;79.50;;;;;;5038429;28;20124;-44
2021/12/14 08:13:12;;;;;;;5.35;3.22;;;15.80;79.50;;;;;;5038518;28;20083;-44
2021/12/14 08:15:47;;;;;;;3.15;2.63;;;15.70;79.40;;;;;;5038311;28;20037;-45
2021/12/14 08:18:13;;;;;;;3.22;2.90;;;;;;;;;;5038409;28;20116;-46
2021/12/14 08:20:52;;;;;;;4.25;2.88;;;15.70;79.50;;;;;;5037761;28;20163;-45
2021/12/14 08:23:27;;;;;;;3.38;2.45;;;15.70;74.20;;;;;;5038572;28;20029;-44
2021/12/14 08:25:57;;;;;;;4.93;3.00;;;15.70;79.50;;;;;;5038364;28;20029;-48
2021/12/14 08:28:23;;;;;;;6.78;3.17;;;;;;;;;;5038424;28;20063;-50
2021/12/14 08:30:56;;;;;;;4.10;3.22;;;15.80;74.30;;;;;;5033366;28;20026;-48
2021/12/14 08:33:25;;;;;;;3.88;2.70;;;15.70;79.40;;;;;;5035367;28;20033;-49
2021/12/14 08:35:51;;;;;;;3.25;2.90;;;;;;;;;;5035126;28;20029;-49
2021/12/14 08:38:18;;;;;;;2.88;2.50;;;15.70;79.60;;;;;;5035118;28;20021;-50
2021/12/14 08:40:50;;;;;;;3.63;3.30;;;15.60;79.40;;;;;;5035319;28;20476;-48
2021/12/14 08:43:27;;;;;;;4.10;2.88;;;15.70;74.20;;;;;;5035467;28;20020;-48
2021/12/14 08:46:09;;;;;;;3.10;2.80;;;15.70;74.00;;;;;;5035147;28;20040;-51
2021/12/14 08:48:42;;;;;;;3.60;2.70;;;15.70;74.20;;;;;;5034831;28;20025;-48
2021/12/14 08:51:40;;;;;;;3.50;2.70;;;15.70;79.50;;;;;;5035045;28;20451;-49
2021/12/14 08:54:12;;;;;;;3.80;3.33;;;15.70;74.00;;;;;;5034697;28;20042;-48
2021/12/14 08:56:50;;;;;;;3.42;3.00;;;15.70;79.60;;;;;;5034645;28;20036;-48
2021/12/14 08:59:16;;;;;;;3.63;3.13;;;;;;;;;;5034627;28;20025;-48
2021/12/14 09:01:43;;;;;;;3.75;3.13;;;;;;;;;;5034809;28;20387;-47
2021/12/14 09:04:32;;;;;;;3.97;3.40;;;15.70;73.90;;;;;;5034528;28;20017;-48
2021/12/14 09:07:12;;;;;;;4.38;3.42;;;15.70;79.30;;;;;;5034384;28;20029;-47
2021/12/14 09:09:42;;;;;;;5.00;3.13;;;15.40;79.10;;;;;;5034407;28;20064;-48
2021/12/14 09:12:15;;;;;;;3.58;2.78;;;15.70;79.30;;;;;;5034373;28;20113;-47
2021/12/14 09:14:42;;;;;;;2.78;2.47;;;15.70;79.40;;;;;;5034272;28;20037;-47
2021/12/14 09:17:13;;;;;;;4.38;3.47;;;15.70;79.40;;;;;;5034240;28;20590;-47
2021/12/14 09:19:43;;;;;;;;;;;15.60;79.60;;;;;;5034618;28;20076;-45
2021/12/14 09:22:15;;;;;;;4.07;3.40;;;15.60;79.40;;;;;;5034482;28;19927;-47
2021/12/14 09:24:42;;;;;;;3.35;3.05;;;;;;;;;;5034158;28;20033;-44
2021/12/14 09:27:11;;;;;;;3.47;2.95;;;15.70;79.50;;;;;;5034077;28;20494;-46
2021/12/14 09:29:37;;;;;;;3.83;3.03;;;;;;;;;;5034072;28;20022;-45
2021/12/14 09:32:07;;;;;;;4.00;3.55;;;15.70;79.50;;;;;;5033957;28;20025;-46
2021/12/14 09:34:39;;;;;;;3.17;2.83;;;15.70;79.60;;;;;;5033879;28;20029;-46
2021/12/14 09:37:09;;;;;;;5.05;3.72;;;15.70;79.20;;;;;;5033933;28;20029;-45
2021/12/14 09:39:38;;;;;;;3.20;2.90;;;15.70;79.60;;;;;;5033810;28;20147;-45
2021/12/14 09:42:09;;;;;;;4.45;3.33;;;15.70;79.60;;;;;;5033501;28;20115;-45
2021/12/14 09:44:36;;;;;;;4.93;3.80;;;15.60;78.40;;;;;;5033750;28;20029;-44
2021/12/14 09:47:11;;;;;;;3.47;3.17;;;15.70;79.60;;;;;;5033606;28;20032;-44
2021/12/14 09:49:38;;;;;;;4.40;3.42;;;15.70;79.70;;;;;;5033165;28;20025;-45
2021/12/14 09:52:15;;;;;;;6.63;3.08;;;15.60;79.40;;;;;;5033189;28;20087;-45
2021/12/14 09:54:41;;;;;;;7.00;3.70;;;;;;;;;;5033422;28;20100;-44
2021/12/14 09:57:26;;;;;;;4.63;3.10;;;15.60;74.10;;;;;;5033524;28;20511;-48
2021/12/14 09:59:55;;;;;;;3.50;3.15;;;15.70;79.60;;;;;;5032178;28;20048;-48
2021/12/14 10:02:37;;;;;;;10.23;3.85;;;15.60;74.00;;;;;;5033457;28;20022;-48
2021/12/14 10:05:16;;;;;;;6.35;3.22;;;15.60;74.10;;;;;;5033385;28;20029;-49
2021/12/14 10:07:42;;;;;;;7.20;4.00;;;;;;;;;;5033280;28;20028;-48
2021/12/14 10:10:14;;;;;;;5.18;3.65;;;15.60;79.60;;;;;;5031998;28;20044;-49
2021/12/14 10:12:49;;;;;;;5.13;3.15;;;15.60;79.40;;;;;;5033260;28;20025;-49
2021/12/14 10:15:32;;;;;;;5.18;3.80;;;15.60;74.00;;;;;;5033187;28;20038;-47
2021/12/14 10:18:03;;;;;;;6.57;4.00;;;15.70;79.50;;;;;;5033157;28;20021;-47
2021/12/14 22:42:11;;;;;;;5.22;4.68;;;17.00;80.10;;;;;;5032489;28;20075;-54
